TIWTACOMA NARROWS
METARs for airports near TIW, sorted by distance:
N 0 nm 294' KTIW 222253Z 08004KT 10SM FEW009 SCT012 SCT031 07/03 A3052
SE 8 nm 322' KTCM 222238Z 04004KT 10SM BKN010 05/05 A3051
S 11 nm 301' KGRF 222158Z 36005KT 10SM OVC010 05/02 A3050
NW 15 nm 444' KPWT 222225Z 03006KT 10SM BKN017 08/04 A3051
NE 15 nm 432' KSEA 222253Z 05006KT 10SM FEW004 FEW014 SCT170 06/02 A3051
SE 15 nm 537' KPLU 222235Z 00000KT 7SM OVC004 03/03 A3051
NE 19 nm 21' KBFI 222253Z VRB04KT 10SM FEW010 SCT150 07/03 A3052
NE 20 nm 32' KRNT 222253Z 00000KT 10SM CLR 06/02 A3052
SW 22 nm 207' KOLM 222228Z 02009KT 10SM FEW013 08/03 A3050
W 23 nm 272' KSHN 222253Z 05007KT 10SM OVC015 07/03 A3049
SW 39 nm 177' KCLS 222235Z 04009KT 10SM CLR 07/04 A3048
N 40 nm 606' KPAE 222253Z 34007KT 310V020 10SM VCFG FEW001 07/03 A3051
N 56 nm 141' KAWO 222156Z 31007KT 10SM CLR 08/04 A3052
W 58 nm 17' KHQM 222253Z 08013G18KT 10SM CLR 11/04 A3045
NW 62 nm 13' KNOW 222235Z 08007KT 10SM CLR 07/05 A3054
NW 63 nm 291' KCLM 222253Z 09008KT 10SM OVC012 07/03 A3053
N 65 nm 47' KNUW 222156Z 33010KT 10SM FEW010 BKN150 BKN250 08/03 A3058
S 70 nm 20' KKLS 222156Z 35010KT 10SM CLR 08/03 A3047
N 72 nm 145' KBVS 222235Z 31007KT 10SM CLR 08/04 A3052
N 77 nm 112' KFHR 222253Z 36005KT 10SM CLR 07/03 A3054
E 84 nm 1763' KELN 222253Z 00000KT 10SM CLR 00/M05 A3051
SW 85 nm 14' KAST 222155Z 04013KT 10SM CLR 09/04 A3040
N 87 nm 34' KORS 222235Z 32008KT 10SM FEW009 07/05 A3054
NW 89 nm 64' CYYJ 222200Z VRB02KT 30SM FEW019 FEW030 BKN250 08/04 A3054
NW 89 nm 193' KUIL 222253Z VRB04KT 10SM CLR 11/07 A3045
S 90 nm 58' KSPB 222253Z 00000KT 10SM CLR 09/03 A3043
N 91 nm 171' KBLI 222253Z 28004KT 10SM FEW010 08/05 A3053
SE 93 nm 1098' KYKM 222253Z 00000KT 10SM CLR 04/M03 A3053
E 96 nm 1248' KEAT 222155Z 10007KT 10SM CLR M02/M04 A3054
S 98 nm 28' KVUO 222253Z 30005KT 10SM CLR 09/03 A3044
TAFs for airports near TIW, sorted by distance:
SE 8 nm 322' KTCM TAF KTCM 222100Z 2221/2403 VRB03KT 9999 OVC005 QNH3049INS
  BECMG 2222/2223 02006KT 9999 FEW010 QNH3044INS
  BECMG 2305/2306 01004KT 3200 BR SCT001 QNH3036INS
  TEMPO 2309/2315 0600 FG
  BECMG 2317/2318 01006KT 9999 NSW OVC003 QNH3030INS
  BECMG 2323/2324 VRB06KT 9999 SCT010 QNH3030INS TX07/2222Z TN00/2314Z
S 11 nm 301' KGRF TAF KGRF 222100Z 2221/2403 VRB05KT 9999 BKN007 QNH3051INS
  BECMG 2302/2303 VRB05KT 9999 SCT020 QNH3049INS
  BECMG 2309/2310 VRB05KT 3200 BR OVC015 QNH3047INS
  TEMPO 2313/2316 VRB02KT 1600 BR OVC010
  BECMG 2318/2319 02005KT 9999 NSW SCT020 QNH3040INS
  BECMG 2322/2323 02005KT 9999 SCT020 QNH3040INS TX07/2221Z TN02/2316Z
NW 15 nm 444' KPWT TAF KPWT 221720Z 2218/2318 00000KT P6SM OVC007
  FM222000 03004KT P6SM BKN010
  FM222200 03006KT P6SM SCT012 SCT200
  FM230500 02003KT 1/2SM FG VV002
  FM231000 VRB03KT 1/4SM FG VV001
NE 15 nm 432' KSEA TAF
  AMD KSEA 222102Z 2221/2324 04004KT P6SM SCT004 BKN015
  FM230000 01006KT P6SM SCT015 BKN250
  FM230600 02003KT 1SM BR FEW010
  FM231000 00000KT 1/4SM FG VV001
  FM231700 VRB02KT 1SM BR OVC003
  FM232000 35003KT P6SM SCT005 SCT015 SCT250
NE 19 nm 21' KBFI TAF
  AMD KBFI 221731Z 2218/2318 VRB03KT 2SM BR OVC002
  FM222000 35004KT 4SM BR BKN012
  FM222200 34004KT 6SM BR SCT015 BKN250
  FM230500 03004KT 4SM BR BKN010
  FM231000 00000KT 2SM BR OVC005
  TEMPO 2313/2317 1/4SM FG OVC002
SW 22 nm 207' KOLM TAF KOLM 221720Z 2218/2318 03003KT 5SM BR BKN007
  FM222100 03004KT P6SM SCT010 SCT200
  FM230500 00000KT 1/2SM FG VV001
  FM231000 00000KT 1/4SM FG VV001
N 40 nm 606' KPAE TAF
  AMD KPAE 222145Z 2222/2318 36006KT P6SM SCT010 SCT200
  FM230500 VRB02KT 1SM BR BKN003
  FM231000 00000KT 1/4SM FG VV001
W 58 nm 17' KHQM TAF KHQM 221720Z 2218/2318 10010KT P6SM SCT005 SCT200
  FM222000 06010KT P6SM SCT010 SCT200
  FM230400 05005KT 4SM BR SKC
  FM231200 10012KT 5SM BR SKC
NW 63 nm 291' KCLM TAF KCLM 221720Z 2218/2318 VRB04KT P6SM OVC013
  FM222000 11004KT P6SM SCT200
  FM230600 14003KT 6SM BR OVC015
N 65 nm 47' KNUW TAF KNUW 2215/2315 VRB06KT 8000 BR VCFG SCT003 BKN250 QNH3056INS
  TEMPO 2215/2219 0800 FG VV002
  FM221900 35008KT 9999 VCFG FEW010 SCT080 SCT250 QNH3045INS
  FM230000 VRB06KT 9999 FEW010 SCT180 QNH3046INS T07/2222Z T02/2309Z FS30189
SW 85 nm 14' KAST TAF KAST 221737Z 2218/2318 06008KT P6SM SKC
N 91 nm 171' KBLI TAF KBLI 221720Z 2218/2318 VRB04KT P6SM SCT010 SCT250
  TEMPO 2218/2220 4SM BR OVC007
  FM222000 36003KT P6SM FEW010 SCT200
  FM230800 00000KT 4SM BR SKC
  FM231100 00000KT 1SM BR SKC
  TEMPO 2312/2316 1/4SM FG VV001
SE 93 nm 1098' KYKM KYKM 221738Z 2218/2318 VRB04KT P6SM FEW250
  FM230800 28004KT 4SM BR SCT001 SCT200
  FM231400 29002KT 1SM BR BKN005
E 96 nm 1248' KEAT TAF COR KEAT 221749Z 2218/2318 VRB04KT 3SM BR SCT001
  TEMPO 2218/2221 1/4SM FZFG VV001
  FM222200 VRB03KT 6SM BR FEW250
  FM230200 VRB02KT 1/4SM FZFG VV002

Shortcut to this page: http://wxbay.com.

Data may contain errors.